Time;durP1;ratioP1;P1;durP2;ratioP2;P2;SDS_P1;SDS_P2;PMS_P1;PMS_P2;Temp;Humidity;BMP_temperature;BMP_pressure;BME280_temperature;BME280_humidity;BME280_pressure;Samples;Min_cycle;Max_cycle;Signal;HPM_P1;HPM_P2
2021/08/20 00:01:47;;;;;;;11.38;3.30;;;;;;;15.93;77.92;100306.97;5091923;28;20362;-77
2021/08/20 00:04:14;;;;;;;15.38;4.68;;;;;;;15.95;77.96;100312.94;5077512;28;20032;-77
2021/08/20 00:06:40;;;;;;;19.08;4.50;;;;;;;15.96;78.16;100320.06;5089831;28;20074;-77
2021/08/20 00:09:05;;;;;;;17.95;3.63;;;;;;;15.96;77.99;100322.81;5092088;28;20032;-78
2021/08/20 00:11:31;;;;;;;15.57;3.63;;;;;;;15.96;77.99;100314.56;5091471;28;20176;-78
2021/08/20 00:13:56;;;;;;;17.83;3.72;;;;;;;15.95;77.89;100310.19;5092616;28;20020;-77
2021/08/20 00:16:21;;;;;;;15.32;3.60;;;;;;;15.95;77.84;100312.94;5093908;28;20035;-77
2021/08/20 00:18:47;;;;;;;14.70;4.10;;;;;;;15.95;77.94;100318.44;5090714;28;20027;-77
2021/08/20 00:21:12;;;;;;;19.10;3.08;;;;;;;15.96;77.78;100308.25;5094363;28;20070;-77
2021/08/20 00:23:38;;;;;;;12.63;3.83;;;;;;;15.97;77.89;100312.63;5091975;28;20385;-77
2021/08/20 00:26:03;;;;;;;16.77;3.90;;;;;;;15.96;77.78;100311.81;5092420;28;20032;-77
2021/08/20 00:28:29;;;;;;;13.02;2.90;;;;;;;15.97;77.91;100327.16;5089896;28;20070;-77
2021/08/20 00:30:54;;;;;;;12.32;3.30;;;;;;;15.97;78.00;100316.19;5092634;28;20035;-77
2021/08/20 00:33:20;;;;;;;13.05;3.70;;;;;;;15.97;78.17;100323.63;5090652;28;20398;-77
2021/08/20 00:35:45;;;;;;;11.25;2.90;;;;;;;15.97;78.20;100329.91;5092677;28;20489;-78
2021/08/20 00:38:12;;;;;;;17.65;4.75;;;;;;;16.00;78.27;100313.91;5093251;28;20035;-77
2021/08/20 00:40:41;;;;;;;17.77;3.80;;;;;;;15.97;78.42;100312.63;5093348;28;20393;-79
2021/08/20 00:43:07;;;;;;;10.50;2.95;;;;;;;15.99;78.55;100329.63;5091246;28;20127;-78
2021/08/20 00:45:33;;;;;;;12.60;3.33;;;;;;;16.01;78.46;100323.78;5091990;28;20115;-78
2021/08/20 00:47:59;;;;;;;16.42;3.70;;;;;;;16.00;78.59;100320.22;5092343;28;20073;-78
2021/08/20 00:50:24;;;;;;;20.80;4.28;;;;;;;16.01;78.69;100321.03;5093731;28;20012;-76
2021/08/20 00:52:49;;;;;;;11.13;2.92;;;;;;;16.04;78.50;100325.88;5088929;28;20073;-77
2021/08/20 00:55:15;;;;;;;9.45;3.03;;;;;;;16.07;78.02;100320.56;5086708;28;20077;-77
2021/08/20 00:57:42;;;;;;;14.60;3.42;;;;;;;16.12;77.58;100349.84;5089683;28;20028;-77
2021/08/20 01:00:08;;;;;;;11.90;2.92;;;;;;;16.16;77.31;100328.81;5091480;28;20477;-77
2021/08/20 01:02:34;;;;;;;6.85;2.53;;;;;;;16.17;76.95;100325.72;5106939;28;20067;-76
2021/08/20 01:04:59;;;;;;;14.57;3.03;;;;;;;16.19;76.99;100334.47;5093537;28;20024;-77
2021/08/20 01:07:25;;;;;;;20.35;3.78;;;;;;;16.18;76.97;100321.06;5090505;28;20035;-77
2021/08/20 01:09:50;;;;;;;14.27;3.75;;;;;;;16.16;77.03;100335.13;5092266;28;20104;-76
2021/08/20 01:12:15;;;;;;;15.25;3.65;;;;;;;16.19;77.09;100347.41;5069824;28;20031;-78
2021/08/20 01:14:41;;;;;;;11.80;2.67;;;;;;;16.17;77.07;100335.94;5093554;28;20024;-76
2021/08/20 01:17:08;;;;;;;13.07;2.72;;;;;;;16.17;76.88;100336.72;5090034;28;20037;-77
2021/08/20 01:19:34;;;;;;;10.27;2.95;;;;;;;16.17;76.67;100350.47;5090771;28;20131;-76
2021/08/20 01:21:59;;;;;;;17.55;3.50;;;;;;;16.17;76.65;100355.19;5086498;28;20032;-77
2021/08/20 01:24:26;;;;;;;12.02;3.13;;;;;;;16.17;76.82;100346.94;5091818;28;20036;-77
2021/08/20 01:26:52;;;;;;;19.33;4.47;;;;;;;16.17;76.66;100344.19;5088845;28;20354;-77
2021/08/20 01:29:19;;;;;;;17.60;2.97;;;;;;;16.15;76.82;100347.25;5091854;28;20035;-78
2021/08/20 01:31:44;;;;;;;13.82;2.75;;;;;;;16.15;76.81;100346.44;5092156;28;20385;-77
2021/08/20 01:34:10;;;;;;;12.63;3.15;;;;;;;16.16;76.76;100340.63;5093431;28;20020;-77
2021/08/20 01:36:36;;;;;;;8.77;2.22;;;;;;;16.17;76.62;100344.19;5092644;28;20027;-78
2021/08/20 01:39:01;;;;;;;14.57;3.65;;;;;;;16.16;76.52;100348.06;5091914;28;20031;-77
2021/08/20 01:41:27;;;;;;;15.93;3.45;;;;;;;16.15;76.41;100350.00;5091313;28;20120;-77
2021/08/20 01:43:53;;;;;;;14.07;3.33;;;;;;;16.14;76.36;100347.56;5091623;28;20043;-78
2021/08/20 01:46:19;;;;;;;12.75;3.40;;;;;;;16.13;76.52;100348.72;5091288;28;20363;-76
2021/08/20 01:48:49;;;;;;;10.13;2.97;;;;;;;16.15;76.48;100346.44;5088325;28;20381;-77
2021/08/20 01:51:16;;;;;;;17.40;3.10;;;;;;;16.13;76.63;100357.78;5083889;28;20031;-76
2021/08/20 01:53:42;;;;;;;14.45;3.15;;;;;;;16.14;76.57;100353.06;5082364;28;20047;-77
2021/08/20 01:56:15;;;;;;;20.70;3.50;;;;;;;16.11;76.61;100357.28;5081389;28;20048;-77
2021/08/20 01:58:41;;;;;;;11.18;2.65;;;;;;;16.13;76.68;100362.47;5085096;28;20058;-77
2021/08/20 02:01:06;;;;;;;12.77;2.70;;;;;;;16.11;76.70;100356.47;5087650;28;20056;-76
2021/08/20 02:03:31;;;;;;;11.98;2.63;;;;;;;16.10;76.76;100357.63;5082267;28;20039;-77
2021/08/20 02:05:57;;;;;;;14.40;3.25;;;;;;;16.09;76.71;100354.03;5087280;28;20027;-77
2021/08/20 02:08:22;;;;;;;14.30;2.78;;;;;;;16.08;76.47;100362.63;5087952;28;20031;-77
2021/08/20 02:10:49;;;;;;;15.13;2.47;;;;;;;16.07;76.69;100358.22;5085023;28;20027;-77
2021/08/20 02:13:14;;;;;;;15.07;2.97;;;;;;;16.08;76.69;100349.66;5089007;28;20481;-77
2021/08/20 02:15:40;;;;;;;15.70;2.90;;;;;;;16.11;76.71;100356.47;5086154;28;20081;-77
2021/08/20 02:18:05;;;;;;;10.95;2.83;;;;;;;16.09;76.64;100348.53;5089842;28;20023;-77
2021/08/20 02:20:30;;;;;;;13.00;3.25;;;;;;;16.10;76.58;100363.13;5088786;28;20027;-77
2021/08/20 02:22:56;;;;;;;15.05;3.25;;;;;;;16.08;76.73;100357.13;5088345;28;20497;-77
2021/08/20 02:25:21;;;;;;;14.95;2.97;;;;;;;16.09;76.75;100366.97;5087729;28;20086;-77
2021/08/20 02:27:47;;;;;;;13.45;2.97;;;;;;;16.08;76.71;100357.13;5080076;28;20051;-77
2021/08/20 02:30:12;;;;;;;11.68;2.47;;;;;;;16.09;76.80;100366.97;5088646;28;20028;-77
2021/08/20 02:32:37;;;;;;;20.38;3.08;;;;;;;16.10;76.62;100368.63;5088320;28;20064;-77
2021/08/20 02:35:03;;;;;;;8.23;2.83;;;;;;;16.10;76.50;100371.38;5088155;28;20020;-77
2021/08/20 02:37:29;;;;;;;13.50;2.92;;;;;;;16.11;76.69;100364.72;5089545;28;20090;-77
2021/08/20 02:39:54;;;;;;;13.55;3.30;;;;;;;16.11;76.94;100372.97;5088742;28;20038;-77
2021/08/20 02:42:19;;;;;;;13.00;2.53;;;;;;;16.10;76.95;100372.16;5087949;28;20031;-77
2021/08/20 02:44:45;;;;;;;12.98;2.75;;;;;;;16.09;77.11;100358.72;5090005;28;20495;-78
2021/08/20 02:47:10;;;;;;;15.00;3.90;;;;;;;16.10;77.16;100368.63;5091378;28;20040;-77
2021/08/20 02:49:36;;;;;;;11.23;3.63;;;;;;;16.09;77.16;100373.28;5088600;28;20020;-77
2021/08/20 02:52:03;;;;;;;16.33;2.92;;;;;;;16.10;77.37;100374.13;5090021;28;20397;-77
2021/08/20 02:54:29;;;;;;;13.73;2.90;;;;;;;16.08;77.29;100366.19;5089520;28;20469;-77
2021/08/20 02:56:55;;;;;;;12.45;3.40;;;;;;;16.08;77.32;100376.38;5089241;28;20032;-77
2021/08/20 02:59:20;;;;;;;13.55;3.15;;;;;;;16.06;77.45;100401.44;5090477;28;20024;-77
2021/08/20 03:01:48;;;;;;;9.43;2.92;;;;;;;16.05;77.41;100377.00;5087659;28;20492;-77
2021/08/20 03:04:14;;;;;;;15.77;3.15;;;;;;;16.05;77.44;100374.25;5087437;28;20283;-77
2021/08/20 03:06:39;;;;;;;17.70;3.05;;;;;;;16.04;77.40;100381.72;5090879;28;20035;-76
2021/08/20 03:09:05;;;;;;;13.55;3.55;;;;;;;16.03;77.45;100379.25;5091383;28;20032;-76
2021/08/20 03:11:31;;;;;;;15.25;2.92;;;;;;;16.04;77.39;100398.22;5088733;28;20465;-76
2021/08/20 03:13:57;;;;;;;12.32;2.75;;;;;;;16.04;77.42;100383.63;5088064;28;20020;-77
2021/08/20 03:16:22;;;;;;;12.38;2.05;;;;;;;16.03;77.38;100401.25;5091338;28;20012;-77
2021/08/20 03:18:47;;;;;;;14.05;3.30;;;;;;;16.04;77.57;100391.88;5088935;28;20035;-77
2021/08/20 03:21:13;;;;;;;14.15;3.20;;;;;;;16.03;77.87;100395.75;5088243;28;20065;-77
2021/08/20 03:23:38;;;;;;;11.68;3.40;;;;;;;16.03;77.73;100401.25;5086935;28;20086;-77
2021/08/20 03:26:06;;;;;;;12.48;3.20;;;;;;;16.02;77.61;100405.16;5090023;28;20483;-77
2021/08/20 03:28:32;;;;;;;12.48;2.97;;;;;;;16.00;77.50;100402.72;5090426;28;20028;-76
2021/08/20 03:30:58;;;;;;;16.95;3.00;;;;;;;15.98;77.51;100396.72;5089725;28;20393;-77
2021/08/20 03:33:23;;;;;;;15.40;2.75;;;;;;;15.96;77.10;100435.53;5089768;28;20024;-77
2021/08/20 03:35:50;;;;;;;14.80;3.20;;;;;;;15.95;77.21;100406.41;5071793;28;20020;-77
2021/08/20 03:38:15;;;;;;;14.80;3.33;;;;;;;15.96;77.41;100412.75;5081123;28;20035;-78
2021/08/20 03:40:41;;;;;;;8.63;2.45;;;;;;;15.95;77.21;100411.09;5088459;28;20032;-77
2021/08/20 03:43:06;;;;;;;7.57;2.15;;;;;;;15.95;77.34;100400.91;5090286;28;20048;-77
2021/08/20 03:45:32;;;;;;;14.00;3.20;;;;;;;15.94;77.42;100402.06;5088290;28;20054;-77
2021/08/20 03:47:57;;;;;;;13.93;2.42;;;;;;;15.93;77.50;100414.19;5092545;28;20019;-78
2021/08/20 03:50:22;;;;;;;12.25;2.53;;;;;;;15.94;77.48;100412.25;5093930;28;20032;-77
2021/08/20 03:52:48;;;;;;;8.65;2.70;;;;;;;15.90;77.45;100403.81;5089861;28;20019;-77
2021/08/20 03:55:13;;;;;;;15.73;2.97;;;;;;;15.89;77.31;100406.88;5088288;28;20519;-77
2021/08/20 03:57:39;;;;;;;12.98;3.33;;;;;;;15.89;77.43;100421.44;5090108;28;20028;-77
2021/08/20 04:00:08;;;;;;;12.68;2.55;;;;;;;15.91;77.63;100419.19;5092900;28;20110;-78
2021/08/20 04:02:33;;;;;;;18.85;3.58;;;;;;;15.89;77.52;100418.69;5085050;28;20105;-77
2021/08/20 04:04:59;;;;;;;13.40;2.70;;;;;;;15.89;77.24;100409.63;5093941;28;20036;-77
2021/08/20 04:07:24;;;;;;;13.00;3.03;;;;;;;15.90;77.74;100425.78;5088759;28;20043;-77
2021/08/20 04:09:50;;;;;;;9.45;2.42;;;;;;;15.90;77.66;100428.53;5093633;28;20028;-77
2021/08/20 04:12:16;;;;;;;12.68;3.25;;;;;;;15.92;77.71;100420.78;5092642;28;20020;-78
2021/08/20 04:14:42;;;;;;;10.15;2.40;;;;;;;15.90;77.36;100436.78;5093235;28;20401;-77
2021/08/20 04:17:07;;;;;;;16.35;3.08;;;;;;;15.91;77.33;100430.19;5093046;28;20024;-77
2021/08/20 04:19:33;;;;;;;15.52;3.33;;;;;;;15.93;77.46;100432.59;5090941;28;20469;-77
2021/08/20 04:21:59;;;;;;;14.23;3.13;;;;;;;15.94;77.59;100458.97;5090644;28;20036;-77
2021/08/20 04:24:25;;;;;;;14.07;2.63;;;;;;;15.94;77.45;100437.78;5093378;28;20026;-77
2021/08/20 04:26:50;;;;;;;14.55;2.55;;;;;;;15.94;77.65;100443.28;5091799;28;20107;-77
2021/08/20 04:29:16;;;;;;;13.45;3.83;;;;;;;15.94;77.64;100432.28;5092759;28;20036;-77
2021/08/20 04:31:42;;;;;;;9.95;2.92;;;;;;;15.95;77.74;100439.41;5090683;28;20023;-78
2021/08/20 04:34:08;;;;;;;7.78;2.60;;;;;;;15.94;77.41;100443.28;5093328;28;20203;-77
2021/08/20 04:36:33;;;;;;;14.30;2.88;;;;;;;15.93;77.27;100446.34;5093871;28;20186;-77
2021/08/20 04:38:58;;;;;;;10.32;2.30;;;;;;;15.94;77.13;100454.28;5086735;28;20035;-77
2021/08/20 04:41:25;;;;;;;10.13;2.45;;;;;;;15.93;76.98;100447.19;5093650;28;20031;-77
2021/08/20 04:43:52;;;;;;;8.60;3.00;;;;;;;15.93;76.80;100446.34;5090427;28;20062;-77
2021/08/20 04:46:18;;;;;;;12.27;2.70;;;;;;;15.91;76.82;100457.69;5086410;28;20028;-77
2021/08/20 04:48:43;;;;;;;9.23;2.35;;;;;;;15.94;76.75;100470.78;5089513;28;20035;-78
2021/08/20 04:51:09;;;;;;;14.27;3.25;;;;;;;15.98;76.52;100454.44;5092529;28;20035;-78
2021/08/20 04:53:39;;;;;;;7.88;1.83;;;;;;;15.98;76.32;100454.44;5093839;28;20085;-78
2021/08/20 04:56:04;;;;;;;7.72;2.05;;;;;;;15.97;76.01;100459.16;5091652;28;20026;-77
2021/08/20 04:58:30;;;;;;;6.90;2.13;;;;;;;15.98;76.08;100471.75;5069583;28;20032;-77
2021/08/20 05:00:55;;;;;;;11.32;2.67;;;;;;;16.00;75.99;100462.41;5090378;28;20024;-77
2021/08/20 05:03:21;;;;;;;14.52;2.30;;;;;;;16.00;76.03;100470.66;5073118;28;20099;-77
2021/08/20 05:05:46;;;;;;;15.63;2.65;;;;;;;16.02;76.22;100468.41;5089519;28;20035;-77
2021/08/20 05:08:12;;;;;;;11.35;2.72;;;;;;;16.04;76.08;100463.38;5088006;28;20035;-78
2021/08/20 05:10:37;;;;;;;11.15;2.33;;;;;;;16.05;76.09;100476.81;5071832;28;20481;-76
2021/08/20 05:13:03;;;;;;;10.38;2.80;;;;;;;16.05;75.83;100489.75;5088200;28;20131;-76
2021/08/20 05:15:28;;;;;;;7.60;2.05;;;;;;;16.03;75.62;100501.06;5090831;28;20016;-76
2021/08/20 05:17:54;;;;;;;9.43;2.30;;;;;;;16.05;75.68;100487.00;5089284;28;20503;-76
2021/08/20 05:20:19;;;;;;;10.48;2.22;;;;;;;16.06;75.59;100488.63;5084609;28;20016;-76
2021/08/20 05:22:49;;;;;;;10.52;2.42;;;;;;;16.08;75.54;100486.38;5089009;28;20035;-76
2021/08/20 05:25:15;;;;;;;7.82;1.75;;;;;;;16.10;75.33;100495.13;5088501;28;20047;-75
2021/08/20 05:27:40;;;;;;;7.95;2.33;;;;;;;16.10;75.45;100492.38;5091026;28;20027;-76
2021/08/20 05:30:06;;;;;;;8.48;1.88;;;;;;;16.11;75.06;100492.03;5089853;28;20028;-78
2021/08/20 05:32:31;;;;;;;13.85;2.88;;;;;;;16.11;74.88;100505.78;5089680;28;20119;-76
2021/08/20 05:34:57;;;;;;;6.15;1.60;;;;;;;16.10;74.71;100506.13;5073088;28;20063;-77
2021/08/20 05:37:22;;;;;;;6.05;1.90;;;;;;;16.11;74.69;100503.03;5089245;28;20477;-76
2021/08/20 05:39:48;;;;;;;4.05;1.58;;;;;;;16.12;74.40;100515.66;5087690;28;20016;-77
2021/08/20 05:42:13;;;;;;;10.18;2.25;;;;;;;16.10;74.41;100495.91;5083979;28;20043;-77
2021/08/20 05:44:38;;;;;;;10.75;1.83;;;;;;;16.12;74.20;100507.41;5087420;28;20040;-77
2021/08/20 05:47:05;;;;;;;10.25;2.47;;;;;;;16.11;74.06;100504.97;5082784;28;20052;-76
2021/08/20 05:49:30;;;;;;;8.00;2.50;;;;;;;16.10;73.97;100508.88;5088000;28;20543;-77
2021/08/20 05:51:56;;;;;;;8.02;2.55;;;;;;;16.12;73.84;100515.66;5089449;28;20031;-76
2021/08/20 05:54:21;;;;;;;7.30;1.83;;;;;;;16.11;73.79;100513.22;5090542;28;20032;-77
2021/08/20 05:56:47;;;;;;;6.38;1.73;;;;;;;16.12;73.63;100523.09;5088773;28;20385;-77
2021/08/20 05:59:12;;;;;;;5.25;1.40;;;;;;;16.14;73.48;100529.09;5085384;28;20036;-77
2021/08/20 06:01:38;;;;;;;6.65;2.40;;;;;;;16.16;73.46;100526.84;5073307;28;20390;-76
2021/08/20 06:04:04;;;;;;;8.40;1.80;;;;;;;16.16;73.36;100532.34;5091070;28;20492;-77
2021/08/20 06:06:29;;;;;;;6.32;1.73;;;;;;;16.16;73.18;100526.84;5085978;28;20033;-77
2021/08/20 06:08:55;;;;;;;8.05;2.35;;;;;;;16.18;73.14;100527.34;5086284;28;20358;-76
2021/08/20 06:11:20;;;;;;;10.77;2.17;;;;;;;16.20;73.22;100539.66;5089307;28;20028;-77
2021/08/20 06:13:49;;;;;;;8.50;2.05;;;;;;;16.22;73.03;100539.31;5091023;28;20406;-77
2021/08/20 06:16:15;;;;;;;8.70;2.28;;;;;;;16.24;72.90;100539.81;5083367;28;20066;-77
2021/08/20 06:18:40;;;;;;;10.93;2.00;;;;;;;16.26;73.01;100540.31;5089473;28;20073;-78
2021/08/20 06:21:06;;;;;;;10.45;2.63;;;;;;;16.25;72.61;100546.91;5089086;28;20020;-76
2021/08/20 06:23:31;;;;;;;9.63;2.05;;;;;;;16.26;72.41;100554.06;5088953;28;20473;-77
2021/08/20 06:25:56;;;;;;;5.70;2.05;;;;;;;16.27;72.64;100566.69;5083046;28;20016;-77
2021/08/20 06:28:22;;;;;;;5.60;1.70;;;;;;;16.28;72.64;100562.78;5090676;28;20028;-77
2021/08/20 06:30:47;;;;;;;9.45;1.65;;;;;;;16.30;72.59;100568.78;5088504;28;20027;-77
2021/08/20 06:33:13;;;;;;;5.43;1.27;;;;;;;16.30;72.59;100571.53;5090238;28;20481;-76
2021/08/20 06:35:41;;;;;;;13.73;2.20;;;;;;;16.27;72.30;100561.19;5089595;28;20454;-77
2021/08/20 06:38:06;;;;;;;5.13;1.73;;;;;;;16.24;72.20;100570.06;5079540;28;20074;-76
2021/08/20 06:40:33;;;;;;;9.48;2.28;;;;;;;16.23;72.30;100570.38;5070399;28;20040;-78
2021/08/20 06:42:58;;;;;;;11.10;2.17;;;;;;;16.20;72.54;100569.06;5088260;28;20052;-78
2021/08/20 06:45:24;;;;;;;7.55;2.00;;;;;;;16.18;72.21;100576.84;5089802;28;20016;-78
2021/08/20 06:47:49;;;;;;;6.68;1.80;;;;;;;16.18;72.13;100590.59;5085386;28;20024;-78
2021/08/20 06:50:14;;;;;;;7.80;1.50;;;;;;;16.20;72.79;100593.81;5091955;28;20484;-78
2021/08/20 06:52:40;;;;;;;10.02;1.55;;;;;;;16.19;72.37;100595.75;5088328;28;20028;-77
2021/08/20 06:55:06;;;;;;;5.90;1.95;;;;;;;16.21;72.42;100578.97;5091592;28;20184;-77
2021/08/20 06:57:31;;;;;;;11.15;1.60;;;;;;;16.21;71.95;100589.97;5081216;28;20027;-78
2021/08/20 06:59:57;;;;;;;6.05;1.50;;;;;;;16.20;71.46;100594.66;5084220;28;20035;-78
2021/08/20 07:02:23;;;;;;;5.45;1.42;;;;;;;16.23;70.93;100587.69;5086257;28;20027;-79
2021/08/20 07:04:50;;;;;;;5.43;1.25;;;;;;;16.31;70.53;100597.09;5088539;28;20028;-79
2021/08/20 07:07:15;;;;;;;4.38;1.40;;;;;;;16.33;69.93;100594.84;5086159;28;20036;-78
2021/08/20 07:09:41;;;;;;;5.18;1.70;;;;;;;16.35;69.75;100601.66;5087971;28;20047;-79
2021/08/20 07:12:06;;;;;;;8.20;1.50;;;;;;;16.39;69.52;100597.13;5085475;28;20115;-78
2021/08/20 07:14:32;;;;;;;7.60;1.40;;;;;;;16.48;69.38;100599.09;5082843;28;20039;-79
2021/08/20 07:16:57;;;;;;;5.10;1.50;;;;;;;16.56;69.24;100614.84;5087985;28;20020;-79
2021/08/20 07:19:23;;;;;;;3.72;1.92;;;;;;;16.60;68.88;100599.34;5084235;28;20535;-79
2021/08/20 07:21:48;;;;;;;5.55;1.70;;;;;;;16.65;68.53;100611.00;5088824;28;20028;-81
2021/08/20 07:24:14;;;;;;;8.63;1.75;;;;;;;16.71;68.31;100617.19;5086070;28;20059;-79
2021/08/20 07:26:39;;;;;;;5.72;1.15;;;;;;;16.74;67.87;100611.03;5092057;28;20077;-77
2021/08/20 07:29:04;;;;;;;4.72;1.10;;;;;;;16.76;67.67;100621.72;5086891;28;20032;-77
2021/08/20 07:31:30;;;;;;;4.50;1.45;;;;;;;16.78;67.64;100619.50;5089905;28;20425;-76
2021/08/20 07:33:55;;;;;;;4.57;1.17;;;;;;;16.81;67.42;100629.88;5083880;28;20028;-77
2021/08/20 07:36:21;;;;;;;4.82;1.48;;;;;;;16.83;67.33;100622.91;5088080;28;20020;-77
2021/08/20 07:38:46;;;;;;;5.88;1.02;;;;;;;16.84;66.97;100624.53;5089862;28;20028;-76
2021/08/20 07:41:12;;;;;;;3.03;1.30;;;;;;;16.85;66.92;100631.66;5090121;28;20405;-77
2021/08/20 07:43:37;;;;;;;4.28;1.35;;;;;;;16.92;67.06;100631.19;5091144;28;20048;-77
2021/08/20 07:46:02;;;;;;;2.75;1.10;;;;;;;16.92;67.45;100631.19;5093305;28;20098;-76
2021/08/20 07:48:28;;;;;;;4.10;1.30;;;;;;;16.97;67.73;100644.00;5089380;28;20031;-76
2021/08/20 07:50:53;;;;;;;7.47;2.13;;;;;;;16.97;67.54;100655.84;5092997;28;20024;-76
2021/08/20 07:53:19;;;;;;;3.80;1.52;;;;;;;16.94;67.62;100650.13;5092693;28;20058;-76
2021/08/20 07:55:44;;;;;;;4.28;1.40;;;;;;;16.99;68.01;100661.81;5087574;28;20054;-77
2021/08/20 07:58:10;;;;;;;6.00;1.45;;;;;;;17.09;67.71;100663.47;5084899;28;20032;-79
2021/08/20 08:00:35;;;;;;;7.68;1.83;;;;;;;17.17;67.46;100661.88;5089208;28;20020;-76
2021/08/20 08:03:01;;;;;;;3.28;0.98;;;;;;;17.18;67.06;100675.31;5082416;28;20185;-77
2021/08/20 08:05:27;;;;;;;4.82;0.95;;;;;;;17.15;67.15;100662.19;5071782;28;20036;-74
2021/08/20 08:07:53;;;;;;;1.92;0.95;;;;;;;17.23;67.40;100664.13;5086403;28;20028;-73
2021/08/20 08:10:19;;;;;;;6.90;1.52;;;;;;;17.28;67.40;100676.97;5063093;28;20024;-74
2021/08/20 08:12:44;;;;;;;5.20;1.48;;;;;;;17.25;67.18;100672.91;5089860;28;20051;-74
2021/08/20 08:15:10;;;;;;;5.38;1.70;;;;;;;17.26;67.51;100677.28;5086507;28;20036;-73
2021/08/20 08:17:36;;;;;;;10.15;2.17;;;;;;;17.26;67.51;100680.03;5075569;28;20020;-72
2021/08/20 08:20:03;;;;;;;5.15;1.67;;;;;;;17.24;67.26;100674.03;5085754;28;20127;-73
2021/08/20 08:22:28;;;;;;;4.75;1.50;;;;;;;17.25;67.41;100681.16;5093027;28;20020;-73
2021/08/20 08:24:54;;;;;;;4.63;1.13;;;;;;;17.29;67.55;100687.66;5090612;28;20327;-73
2021/08/20 08:27:19;;;;;;;3.60;1.00;;;;;;;17.39;67.13;100699.50;5089088;28;20492;-73
2021/08/20 08:29:44;;;;;;;3.30;1.38;;;;;;;17.44;66.89;100694.66;5088147;28;20031;-72
2021/08/20 08:32:10;;;;;;;8.00;1.60;;;;;;;17.37;66.86;100699.00;5081177;28;20028;-74
2021/08/20 08:34:35;;;;;;;5.13;1.73;;;;;;;17.36;66.94;100700.16;5089549;28;20016;-73
2021/08/20 08:37:00;;;;;;;5.18;1.60;;;;;;;17.39;67.08;100694.00;5087450;28;20489;-72
2021/08/20 08:39:26;;;;;;;6.53;1.25;;;;;;;17.40;66.64;100698.38;5087023;28;20530;-73
2021/08/20 08:41:52;;;;;;;6.40;1.70;;;;;;;17.41;66.60;100698.06;5088346;28;20012;-73
2021/08/20 08:44:17;;;;;;;4.80;1.40;;;;;;;17.51;66.41;100708.78;5086845;28;20044;-74
2021/08/20 08:46:42;;;;;;;6.43;1.35;;;;;;;17.62;66.45;100714.75;5089539;28;20730;-72
2021/08/20 08:49:08;;;;;;;7.05;2.03;;;;;;;17.65;65.98;100722.41;5071240;28;20079;-73
2021/08/20 08:51:33;;;;;;;5.32;1.30;;;;;;;17.60;65.57;100711.53;5083188;28;20024;-73
2021/08/20 08:53:59;;;;;;;5.00;1.60;;;;;;;17.66;65.61;100721.28;5088413;28;20493;-74
2021/08/20 08:56:24;;;;;;;10.57;1.92;;;;;;;17.74;65.36;100720.47;5088235;28;20687;-73
2021/08/20 08:58:50;;;;;;;5.32;1.38;;;;;;;17.81;65.34;100721.94;5086104;28;20028;-74
2021/08/20 09:01:28;;;;;;;4.05;1.10;;;;;;;17.90;65.11;100720.81;5088596;28;20023;-73
2021/08/20 09:04:18;;;;;;;2.33;1.35;;;;;;;17.94;64.94;100721.78;5088161;28;20032;-73
2021/08/20 09:06:46;;;;;;;3.60;1.30;;;;;;;17.92;64.57;100713.03;5090635;28;20035;-73
2021/08/20 09:09:22;;;;;;;7.40;1.20;;;;;;;17.91;64.23;100719.69;5084832;28;20039;-74
2021/08/20 09:11:53;;;;;;;4.50;1.08;;;;;;;17.96;64.26;100732.50;5083664;28;20386;-73
2021/08/20 09:14:19;;;;;;;6.78;1.45;;;;;;;18.02;63.72;100733.94;5088806;28;20029;-73
2021/08/20 09:16:47;;;;;;;5.05;1.70;;;;;;;18.09;63.84;100739.81;5086463;28;20358;-74
2021/08/20 09:19:13;;;;;;;5.60;1.27;;;;;;;18.09;63.35;100750.84;5088169;28;20403;-74
2021/08/20 09:21:40;;;;;;;5.25;1.73;;;;;;;18.06;63.35;100743.22;5087522;28;20111;-74
2021/08/20 09:24:30;;;;;;;3.70;1.45;;;;;;;18.10;63.40;100735.91;5087216;28;20377;-74
2021/08/20 09:27:14;;;;;;;3.85;1.48;;;;;;;18.15;63.20;100741.25;5087645;28;20042;-73
2021/08/20 09:30:01;;;;;;;3.33;1.35;;;;;;;18.17;63.18;100741.75;5085706;28;20392;-73
2021/08/20 09:32:27;;;;;;;1.90;0.95;;;;;;;18.27;63.24;100739.78;5077330;28;20046;-73
2021/08/20 09:34:54;;;;;;;3.85;1.20;;;;;;;18.17;62.94;100744.50;5088747;28;20028;-73
2021/08/20 09:37:20;;;;;;;2.67;1.17;;;;;;;18.13;62.36;100746.28;5070491;28;20084;-72
2021/08/20 09:39:46;;;;;;;2.65;0.93;;;;;;;18.14;62.69;100747.91;5088344;28;20032;-72
2021/08/20 09:42:13;;;;;;;3.40;1.13;;;;;;;18.13;61.93;100751.78;5087584;28;20020;-73
2021/08/20 09:44:39;;;;;;;4.43;1.02;;;;;;;18.12;62.16;100755.69;5088374;28;20063;-72
2021/08/20 09:47:05;;;;;;;4.45;1.33;;;;;;;18.26;62.33;100755.53;5082278;28;20043;-73
2021/08/20 09:49:31;;;;;;;5.47;1.65;;;;;;;18.35;62.07;100752.75;5090683;28;20031;-74
2021/08/20 09:51:56;;;;;;;2.90;1.20;;;;;;;18.36;61.97;100757.97;5084522;28;20019;-73
2021/08/20 09:54:23;;;;;;;4.07;1.00;;;;;;;18.31;61.49;100763.63;5081030;28;20036;-73
2021/08/20 09:56:49;;;;;;;3.38;1.90;;;;;;;18.32;61.87;100758.94;5090359;28;20104;-73
2021/08/20 09:59:15;;;;;;;5.88;1.05;;;;;;;18.37;61.85;100769.81;5054055;28;20465;-73
2021/08/20 10:01:42;;;;;;;7.13;1.40;;;;;;;18.49;61.35;100769.94;5091331;28;20032;-75
2021/08/20 10:04:09;;;;;;;4.30;1.20;;;;;;;18.48;61.26;100773.03;5081903;28;20028;-73
2021/08/20 10:06:41;;;;;;;6.20;1.55;;;;;;;18.47;61.10;100761.19;5086699;28;20020;-73
2021/08/20 10:09:11;;;;;;;6.75;1.60;;;;;;;18.56;61.38;100775.78;5071455;28;20035;-73
2021/08/20 10:11:40;;;;;;;4.95;1.20;;;;;;;18.60;60.78;100771.19;5089024;28;20113;-72
2021/08/20 10:14:05;;;;;;;2.97;1.00;;;;;;;18.66;60.48;100776.56;5090631;28;20039;-72
2021/08/20 10:16:32;;;;;;;5.63;1.58;;;;;;;18.63;60.30;100787.13;5087980;28;20020;-72
2021/08/20 10:18:58;;;;;;;2.95;1.50;;;;;;;18.65;60.10;100778.50;5100348;27;20032;-72
2021/08/20 10:21:24;;;;;;;5.88;1.73;;;;;;;18.60;60.08;100775.91;5070151;28;20028;-73
2021/08/20 10:23:49;;;;;;;4.72;1.17;;;;;;;18.59;60.13;100780.63;5070206;28;20491;-72
2021/08/20 10:26:15;;;;;;;5.63;1.48;;;;;;;18.60;59.80;100781.44;5071764;28;20035;-74
2021/08/20 10:28:40;;;;;;;4.78;1.58;;;;;;;18.59;59.57;100780.63;5088719;28;20042;-74
2021/08/20 10:31:05;;;;;;;5.68;1.20;;;;;;;18.50;60.19;100781.81;5084331;28;20390;-75
2021/08/20 10:33:36;;;;;;;3.70;1.33;;;;;;;18.59;59.89;100782.59;5070054;28;20355;-74
2021/08/20 10:36:02;;;;;;;6.15;1.67;;;;;;;18.67;60.24;100786.47;5083184;28;20024;-75
2021/08/20 10:38:30;;;;;;;7.38;1.30;;;;;;;18.78;60.16;100787.78;5089818;28;20020;-76
2021/08/20 10:41:08;;;;;;;7.20;1.38;;;;;;;18.72;59.64;100789.06;5085512;28;20028;-75
2021/08/20 10:44:11;;;;;;;5.47;1.38;;;;;;;18.72;58.96;100789.06;5088765;28;20091;-76
2021/08/20 10:46:37;;;;;;;2.70;0.98;;;;;;;18.66;58.84;100798.66;5088844;28;20024;-75
2021/08/20 10:49:12;;;;;;;4.35;1.48;;;;;;;18.67;58.67;100797.53;5090043;28;20107;-75
2021/08/20 10:51:49;;;;;;;5.45;1.30;;;;;;;18.78;58.91;100796.88;5085683;28;20035;-76
2021/08/20 10:54:36;;;;;;;3.58;1.20;;;;;;;18.96;58.99;100805.94;5090570;28;20027;-77
2021/08/20 10:57:02;;;;;;;3.92;1.38;;;;;;;19.00;58.75;100806.88;5055881;28;20054;-76
2021/08/20 10:59:42;;;;;;;9.45;1.40;;;;;;;18.96;58.59;100810.63;5088553;28;20024;-76
2021/08/20 11:02:20;;;;;;;5.97;1.60;;;;;;;18.94;58.45;100802.69;5092942;28;20047;-76
2021/08/20 11:05:01;;;;;;;3.72;1.35;;;;;;;18.93;57.93;100805.75;5092437;28;20139;-76
2021/08/20 11:07:42;;;;;;;7.35;1.52;;;;;;;18.97;58.07;100813.06;5084907;28;20471;-75
2021/08/20 11:10:07;;;;;;;3.80;1.17;;;;;;;19.02;58.30;100818.41;5092148;28;20152;-75
2021/08/20 11:12:47;;;;;;;4.07;1.40;;;;;;;19.12;57.86;100820.00;5094726;28;20057;-76
2021/08/20 11:15:25;;;;;;;6.38;1.50;;;;;;;19.13;57.94;100826.34;5093054;28;20036;-76
2021/08/20 11:17:56;;;;;;;3.72;1.20;;;;;;;19.16;57.80;100831.22;5081165;28;20032;-74
2021/08/20 11:20:22;;;;;;;5.65;1.33;;;;;;;19.11;57.42;100831.41;5091602;28;20038;-75